sensor_id;sensor_type;location;lat;lon;timestamp;pressure;altitude;pressure_sealevel;temperature;humidity
72560;BME280;62987;52.382;9.752;2023-04-20T00:01:27;101405.31;;;5.14;100.00
72560;BME280;62987;52.382;9.752;2023-04-20T00:03:55;101408.00;;;5.10;99.38
72560;BME280;62987;52.382;9.752;2023-04-20T00:06:24;101392.22;;;5.05;100.00
72560;BME280;62987;52.382;9.752;2023-04-20T00:08:55;101398.38;;;5.04;98.25
72560;BME280;62987;52.382;9.752;2023-04-20T00:11:23;101408.97;;;4.97;98.42
72560;BME280;62987;52.382;9.752;2023-04-20T00:13:52;101398.44;;;4.95;99.08
72560;BME280;62987;52.382;9.752;2023-04-20T00:16:20;101385.25;;;4.95;98.92
72560;BME280;62987;52.382;9.752;2023-04-20T00:18:49;101393.16;;;4.95;98.23
72560;BME280;62987;52.382;9.752;2023-04-20T00:21:17;101397.56;;;4.93;98.83
72560;BME280;62987;52.382;9.752;2023-04-20T00:23:49;101387.03;;;4.93;97.80
72560;BME280;62987;52.382;9.752;2023-04-20T00:26:18;101387.03;;;4.93;98.56
72560;BME280;62987;52.382;9.752;2023-04-20T00:28:50;101377.41;;;4.89;98.54
72560;BME280;62987;52.382;9.752;2023-04-20T00:31:19;101377.41;;;4.92;97.61
72560;BME280;62987;52.382;9.752;2023-04-20T00:33:47;101365.16;;;4.85;98.99
72560;BME280;62987;52.382;9.752;2023-04-20T00:36:16;101369.50;;;4.88;98.43
72560;BME280;62987;52.382;9.752;2023-04-20T00:38:44;101378.28;;;4.90;98.68
72560;BME280;62987;52.382;9.752;2023-04-20T00:41:12;101366.88;;;4.89;98.32
72560;BME280;62987;52.382;9.752;2023-04-20T00:43:48;101375.69;;;4.82;96.78
72560;BME280;62987;52.382;9.752;2023-04-20T00:46:17;101367.78;;;4.83;96.97
72560;BME280;62987;52.382;9.752;2023-04-20T00:48:45;101364.28;;;4.86;98.51
72560;BME280;62987;52.382;9.752;2023-04-20T00:51:14;101367.78;;;4.85;97.93
72560;BME280;62987;52.382;9.752;2023-04-20T00:53:43;101369.53;;;4.85;98.28
72560;BME280;62987;52.382;9.752;2023-04-20T00:56:12;101342.38;;;4.76;97.44
72560;BME280;62987;52.382;9.752;2023-04-20T00:58:40;101351.03;;;4.91;96.97
72560;BME280;62987;52.382;9.752;2023-04-20T01:01:09;101359.78;;;4.93;96.85
72560;BME280;62987;52.382;9.752;2023-04-20T01:03:38;101333.59;;;4.76;96.74
72560;BME280;62987;52.382;9.752;2023-04-20T01:06:06;101358.09;;;4.87;97.89
72560;BME280;62987;52.382;9.752;2023-04-20T01:08:41;101352.81;;;4.87;97.29
72560;BME280;62987;52.382;9.752;2023-04-20T01:11:13;101354.56;;;4.90;97.80
72560;BME280;62987;52.382;9.752;2023-04-20T01:13:41;101340.50;;;4.91;98.49
72560;BME280;62987;52.382;9.752;2023-04-20T01:16:09;101346.66;;;4.91;98.06
72560;BME280;62987;52.382;9.752;2023-04-20T01:18:42;101336.06;;;4.96;96.46
72560;BME280;62987;52.382;9.752;2023-04-20T01:21:12;101310.75;;;4.73;97.74
72560;BME280;62987;52.382;9.752;2023-04-20T01:23:42;101336.94;;;4.93;97.30
72560;BME280;62987;52.382;9.752;2023-04-20T01:26:13;101338.69;;;4.96;97.08
72560;BME280;62987;52.382;9.752;2023-04-20T01:28:41;101336.06;;;4.97;96.71
72560;BME280;62987;52.382;9.752;2023-04-20T01:31:10;101334.25;;;5.01;97.36
72560;BME280;62987;52.382;9.752;2023-04-20T01:33:39;101313.25;;;4.92;96.02
72560;BME280;62987;52.382;9.752;2023-04-20T01:36:08;101332.50;;;5.00;95.84
72560;BME280;62987;52.382;9.752;2023-04-20T01:38:36;101327.25;;;4.98;95.65
72560;BME280;62987;52.382;9.752;2023-04-20T01:41:08;101319.31;;;5.00;96.40
72560;BME280;62987;52.382;9.752;2023-04-20T01:43:37;101312.28;;;5.00;96.34
72560;BME280;62987;52.382;9.752;2023-04-20T01:46:05;101227.50;;;4.57;96.21
72560;BME280;62987;52.382;9.752;2023-04-20T01:48:33;101296.47;;;5.03;95.41
72560;BME280;62987;52.382;9.752;2023-04-20T01:51:02;101290.31;;;5.03;95.21
72560;BME280;62987;52.382;9.752;2023-04-20T01:53:29;101295.59;;;5.01;96.21
72560;BME280;62987;52.382;9.752;2023-04-20T01:55:57;101303.50;;;5.01;96.33
72560;BME280;62987;52.382;9.752;2023-04-20T01:58:27;101292.06;;;5.01;95.93
72560;BME280;62987;52.382;9.752;2023-04-20T02:00:55;101222.19;;;4.60;96.17
72560;BME280;62987;52.382;9.752;2023-04-20T02:03:23;101292.06;;;5.02;96.37
72560;BME280;62987;52.382;9.752;2023-04-20T02:05:53;101292.06;;;5.01;96.00
72560;BME280;62987;52.382;9.752;2023-04-20T02:08:21;101284.16;;;5.02;95.93
72560;BME280;62987;52.382;9.752;2023-04-20T02:10:49;101292.06;;;5.02;96.16
72560;BME280;62987;52.382;9.752;2023-04-20T02:13:17;101294.69;;;5.02;95.81
72560;BME280;62987;52.382;9.752;2023-04-20T02:15:46;101285.94;;;5.00;95.87
72560;BME280;62987;52.382;9.752;2023-04-20T02:18:14;101281.59;;;4.96;96.27
72560;BME280;62987;52.382;9.752;2023-04-20T02:20:42;101283.34;;;4.94;96.65
72560;BME280;62987;52.382;9.752;2023-04-20T02:23:10;101194.31;;;4.38;96.26
72560;BME280;62987;52.382;9.752;2023-04-20T02:25:38;101285.09;;;4.95;96.64
72560;BME280;62987;52.382;9.752;2023-04-20T02:28:06;101276.31;;;4.95;97.25
72560;BME280;62987;52.382;9.752;2023-04-20T02:30:37;101278.97;;;4.93;97.14
72560;BME280;62987;52.382;9.752;2023-04-20T02:33:06;101271.09;;;4.90;97.76
72560;BME280;62987;52.382;9.752;2023-04-20T02:35:34;101287.78;;;4.92;98.01
72560;BME280;62987;52.382;9.752;2023-04-20T02:38:02;101286.03;;;4.91;97.41
72560;BME280;62987;52.382;9.752;2023-04-20T02:40:30;101286.03;;;4.91;97.76
72560;BME280;62987;52.382;9.752;2023-04-20T02:42:58;101288.63;;;4.93;97.64
72560;BME280;62987;52.382;9.752;2023-04-20T02:45:27;101277.25;;;4.92;97.68
72560;BME280;62987;52.382;9.752;2023-04-20T02:47:56;101285.16;;;4.92;98.08
72560;BME280;62987;52.382;9.752;2023-04-20T02:50:29;101283.41;;;4.90;98.21
72560;BME280;62987;52.382;9.752;2023-04-20T02:53:11;101279.88;;;4.92;98.13
72560;BME280;62987;52.382;9.752;2023-04-20T02:55:39;101277.19;;;4.95;97.89
72560;BME280;62987;52.382;9.752;2023-04-20T02:58:19;101272.81;;;4.96;97.65
72560;BME280;62987;52.382;9.752;2023-04-20T03:01:13;101269.28;;;4.97;97.72
72560;BME280;62987;52.382;9.752;2023-04-20T03:03:44;101264.91;;;4.94;97.69
72560;BME280;62987;52.382;9.752;2023-04-20T03:06:14;101265.78;;;4.95;98.50
72560;BME280;62987;52.382;9.752;2023-04-20T03:08:47;101268.41;;;4.95;98.13
72560;BME280;62987;52.382;9.752;2023-04-20T03:11:38;101259.63;;;4.94;97.98
72560;BME280;62987;52.382;9.752;2023-04-20T03:14:06;101266.63;;;4.98;97.95
72560;BME280;62987;52.382;9.752;2023-04-20T03:16:34;101252.66;;;4.92;98.20
72560;BME280;62987;52.382;9.752;2023-04-20T03:19:02;101258.72;;;4.98;98.14
72560;BME280;62987;52.382;9.752;2023-04-20T03:21:32;101266.63;;;4.98;98.17
72560;BME280;62987;52.382;9.752;2023-04-20T03:24:00;101267.50;;;4.99;98.18
72560;BME280;62987;52.382;9.752;2023-04-20T03:26:28;101264.88;;;4.97;98.03
72560;BME280;62987;52.382;9.752;2023-04-20T03:29:10;101264.91;;;4.96;98.35
72560;BME280;62987;52.382;9.752;2023-04-20T03:31:38;101269.28;;;4.95;98.31
72560;BME280;62987;52.382;9.752;2023-04-20T03:34:07;101262.25;;;4.97;97.81
72560;BME280;62987;52.382;9.752;2023-04-20T03:36:37;101270.13;;;5.00;97.77
72560;BME280;62987;52.382;9.752;2023-04-20T03:39:05;101270.16;;;4.99;97.35
72560;BME280;62987;52.382;9.752;2023-04-20T03:41:33;101274.53;;;4.98;97.36
72560;BME280;62987;52.382;9.752;2023-04-20T03:44:01;101278.13;;;4.90;97.25
72560;BME280;62987;52.382;9.752;2023-04-20T03:46:29;101278.13;;;4.91;97.44
72560;BME280;62987;52.382;9.752;2023-04-20T03:48:57;101274.66;;;4.86;96.75
72560;BME280;62987;52.382;9.752;2023-04-20T03:51:25;101277.25;;;4.92;96.75
72560;BME280;62987;52.382;9.752;2023-04-20T03:53:54;101280.75;;;4.91;96.88
72560;BME280;62987;52.382;9.752;2023-04-20T03:56:22;101271.97;;;4.92;96.48
72560;BME280;62987;52.382;9.752;2023-04-20T03:58:53;101269.31;;;4.94;96.40
72560;BME280;62987;52.382;9.752;2023-04-20T04:01:24;101253.59;;;4.85;96.65
72560;BME280;62987;52.382;9.752;2023-04-20T04:03:52;101268.47;;;4.92;97.14
72560;BME280;62987;52.382;9.752;2023-04-20T04:06:21;101263.19;;;4.90;96.82
72560;BME280;62987;52.382;9.752;2023-04-20T04:08:50;101280.75;;;4.91;97.08
72560;BME280;62987;52.382;9.752;2023-04-20T04:11:19;101272.81;;;4.93;97.83
72560;BME280;62987;52.382;9.752;2023-04-20T04:13:48;101278.09;;;4.94;97.71
72560;BME280;62987;52.382;9.752;2023-04-20T04:16:16;101272.78;;;4.99;97.63
72560;BME280;62987;52.382;9.752;2023-04-20T04:18:44;101272.78;;;4.99;97.65
72560;BME280;62987;52.382;9.752;2023-04-20T04:21:12;101250.09;;;4.84;97.48
72560;BME280;62987;52.382;9.752;2023-04-20T04:23:45;101277.09;;;5.06;97.68
72560;BME280;62987;52.382;9.752;2023-04-20T04:26:33;101273.56;;;5.07;98.08
72560;BME280;62987;52.382;9.752;2023-04-20T04:29:02;101269.16;;;5.09;98.25
72560;BME280;62987;52.382;9.752;2023-04-20T04:31:32;101261.31;;;5.01;98.91
72560;BME280;62987;52.382;9.752;2023-04-20T04:34:07;101276.19;;;5.07;98.73
72560;BME280;62987;52.382;9.752;2023-04-20T04:36:41;101277.06;;;5.07;98.87
72560;BME280;62987;52.382;9.752;2023-04-20T04:39:12;101278.00;;;5.05;98.99
72560;BME280;62987;52.382;9.752;2023-04-20T04:41:49;101278.81;;;5.10;98.69
72560;BME280;62987;52.382;9.752;2023-04-20T04:44:26;101272.75;;;5.02;99.13
72560;BME280;62987;52.382;9.752;2023-04-20T04:46:54;101265.66;;;5.07;99.08
72560;BME280;62987;52.382;9.752;2023-04-20T04:49:24;101263.00;;;5.11;99.02
72560;BME280;62987;52.382;9.752;2023-04-20T04:51:52;101260.31;;;5.13;98.84
72560;BME280;62987;52.382;9.752;2023-04-20T04:54:20;101250.78;;;5.01;98.83
72560;BME280;62987;52.382;9.752;2023-04-20T04:56:49;101252.53;;;5.02;99.03
72560;BME280;62987;52.382;9.752;2023-04-20T04:59:17;101277.00;;;5.16;99.01
72560;BME280;62987;52.382;9.752;2023-04-20T05:01:45;101279.63;;;5.18;98.82
72560;BME280;62987;52.382;9.752;2023-04-20T05:04:13;101288.34;;;5.20;99.06
72560;BME280;62987;52.382;9.752;2023-04-20T05:06:41;101275.22;;;5.18;99.04
72560;BME280;62987;52.382;9.752;2023-04-20T05:09:09;101280.50;;;5.18;99.07
72560;BME280;62987;52.382;9.752;2023-04-20T05:11:38;101283.06;;;5.21;98.98
72560;BME280;62987;52.382;9.752;2023-04-20T05:14:07;101281.31;;;5.23;98.76
72560;BME280;62987;52.382;9.752;2023-04-20T05:16:35;101288.34;;;5.20;98.96
72560;BME280;62987;52.382;9.752;2023-04-20T05:19:03;101292.69;;;5.26;99.20
72560;BME280;62987;52.382;9.752;2023-04-20T05:21:31;101291.78;;;5.28;98.60
72560;BME280;62987;52.382;9.752;2023-04-20T05:23:59;101291.72;;;5.33;98.29
72560;BME280;62987;52.382;9.752;2023-04-20T05:26:27;101292.63;;;5.32;98.26
72560;BME280;62987;52.382;9.752;2023-04-20T05:28:55;101285.63;;;5.31;98.53
72560;BME280;62987;52.382;9.752;2023-04-20T05:31:25;101308.44;;;5.35;98.48
72560;BME280;62987;52.382;9.752;2023-04-20T05:33:54;101304.91;;;5.34;98.41
72560;BME280;62987;52.382;9.752;2023-04-20T05:36:23;101291.72;;;5.34;98.38
72560;BME280;62987;52.382;9.752;2023-04-20T05:38:50;101288.25;;;5.31;98.40
72560;BME280;62987;52.382;9.752;2023-04-20T05:41:18;101303.94;;;5.43;98.90
72560;BME280;62987;52.382;9.752;2023-04-20T05:43:52;101311.78;;;5.49;98.11
72560;BME280;62987;52.382;9.752;2023-04-20T05:46:20;101310.06;;;5.45;97.85
72560;BME280;62987;52.382;9.752;2023-04-20T05:48:49;101307.38;;;5.51;98.01
72560;BME280;62987;52.382;9.752;2023-04-20T05:51:17;101314.34;;;5.55;97.54
72560;BME280;62987;52.382;9.752;2023-04-20T05:53:45;101231.44;;;5.02;97.42
72560;BME280;62987;52.382;9.752;2023-04-20T05:56:13;101310.75;;;5.62;97.00
72560;BME280;62987;52.382;9.752;2023-04-20T05:58:41;101314.13;;;5.73;96.06
72560;BME280;62987;52.382;9.752;2023-04-20T06:01:09;101313.16;;;5.79;95.22
72560;BME280;62987;52.382;9.752;2023-04-20T06:03:37;101319.16;;;5.94;94.81
72560;BME280;62987;52.382;9.752;2023-04-20T06:06:07;101317.34;;;5.98;93.53
72560;BME280;62987;52.382;9.752;2023-04-20T06:08:35;101323.31;;;6.12;93.40
72560;BME280;62987;52.382;9.752;2023-04-20T06:11:04;101319.63;;;6.24;92.09
72560;BME280;62987;52.382;9.752;2023-04-20T06:13:31;101318.81;;;6.20;91.49
72560;BME280;62987;52.382;9.752;2023-04-20T06:15:59;101323.41;;;6.08;91.73
72560;BME280;62987;52.382;9.752;2023-04-20T06:18:27;101301.13;;;6.24;91.50
72560;BME280;62987;52.382;9.752;2023-04-20T06:20:55;101299.75;;;6.55;89.77
72560;BME280;62987;52.382;9.752;2023-04-20T06:23:25;101297.75;;;6.72;88.53
72560;BME280;62987;52.382;9.752;2023-04-20T06:25:52;101296.03;;;6.68;87.95
72560;BME280;62987;52.382;9.752;2023-04-20T06:28:20;101300.59;;;6.60;88.48
72560;BME280;62987;52.382;9.752;2023-04-20T06:30:48;101295.31;;;6.60;88.12
72560;BME280;62987;52.382;9.752;2023-04-20T06:33:16;101302.47;;;6.52;87.67
72560;BME280;62987;52.382;9.752;2023-04-20T06:35:44;101308.53;;;6.60;88.11
72560;BME280;62987;52.382;9.752;2023-04-20T06:38:12;101296.91;;;6.69;87.91
72560;BME280;62987;52.382;9.752;2023-04-20T06:40:41;101297.00;;;6.64;87.85
72560;BME280;62987;52.382;9.752;2023-04-20T06:43:09;101290.78;;;6.67;88.48
72560;BME280;62987;52.382;9.752;2023-04-20T06:45:37;101304.72;;;6.76;87.66
72560;BME280;62987;52.382;9.752;2023-04-20T06:48:06;101306.91;;;6.50;87.52
72560;BME280;62987;52.382;9.752;2023-04-20T06:50:54;101303.56;;;6.39;88.59
72560;BME280;62987;52.382;9.752;2023-04-20T06:53:22;101308.78;;;6.42;89.13
72560;BME280;62987;52.382;9.752;2023-04-20T06:55:52;101302.28;;;6.63;88.52
72560;BME280;62987;52.382;9.752;2023-04-20T06:58:21;101303.44;;;6.99;86.16
72560;BME280;62987;52.382;9.752;2023-04-20T07:00:49;101307.19;;;7.33;84.82
72560;BME280;62987;52.382;9.752;2023-04-20T07:03:18;101296.56;;;7.36;82.77
72560;BME280;62987;52.382;9.752;2023-04-20T07:05:46;101298.09;;;7.48;82.41
72560;BME280;62987;52.382;9.752;2023-04-20T07:08:14;101292.03;;;6.97;83.08
72560;BME280;62987;52.382;9.752;2023-04-20T07:10:42;101302.34;;;7.12;83.44
72560;BME280;62987;52.382;9.752;2023-04-20T07:13:15;101314.78;;;7.05;83.60
72560;BME280;62987;52.382;9.752;2023-04-20T07:15:43;101313.31;;;6.88;83.55
72560;BME280;62987;52.382;9.752;2023-04-20T07:18:12;101319.78;;;6.71;83.99
72560;BME280;62987;52.382;9.752;2023-04-20T07:20:39;101323.22;;;6.75;84.88
72560;BME280;62987;52.382;9.752;2023-04-20T07:23:07;101319.69;;;6.76;85.12
72560;BME280;62987;52.382;9.752;2023-04-20T07:25:35;101311.97;;;6.62;85.79
72560;BME280;62987;52.382;9.752;2023-04-20T07:28:03;101326.16;;;6.58;85.88
72560;BME280;62987;52.382;9.752;2023-04-20T07:30:33;101312.84;;;6.63;85.01
72560;BME280;62987;52.382;9.752;2023-04-20T07:33:01;101299.66;;;6.61;84.99
72560;BME280;62987;52.382;9.752;2023-04-20T07:35:29;101247.94;;;6.48;83.85
72560;BME280;62987;52.382;9.752;2023-04-20T07:37:57;101322.63;;;7.10;82.96
72560;BME280;62987;52.382;9.752;2023-04-20T07:40:25;101318.97;;;7.18;82.49
72560;BME280;62987;52.382;9.752;2023-04-20T07:42:53;101321.28;;;7.35;80.76
72560;BME280;62987;52.382;9.752;2023-04-20T07:45:21;101323.53;;;7.56;80.60
72560;BME280;62987;52.382;9.752;2023-04-20T07:47:51;101319.75;;;7.68;79.18
72560;BME280;62987;52.382;9.752;2023-04-20T07:50:20;101317.16;;;7.65;78.81
72560;BME280;62987;52.382;9.752;2023-04-20T07:52:48;101315.88;;;7.41;79.06
72560;BME280;62987;52.382;9.752;2023-04-20T07:55:17;101322.66;;;7.54;78.67
72560;BME280;62987;52.382;9.752;2023-04-20T07:57:45;101323.94;;;7.78;77.88
72560;BME280;62987;52.382;9.752;2023-04-20T08:00:14;101326.25;;;7.95;76.96
72560;BME280;62987;52.382;9.752;2023-04-20T08:02:44;101324.00;;;7.77;77.05
72560;BME280;62987;52.382;9.752;2023-04-20T08:05:13;101329.47;;;7.68;78.22
72560;BME280;62987;52.382;9.752;2023-04-20T08:07:42;101329.44;;;7.71;78.07
72560;BME280;62987;52.382;9.752;2023-04-20T08:10:10;101318.09;;;7.62;78.05
72560;BME280;62987;52.382;9.752;2023-04-20T08:12:38;101329.03;;;7.89;76.14
72560;BME280;62987;52.382;9.752;2023-04-20T08:15:08;101329.34;;;8.55;74.46
72560;BME280;62987;52.382;9.752;2023-04-20T08:17:36;101312.72;;;8.84;70.75
72560;BME280;62987;52.382;9.752;2023-04-20T08:20:05;101318.56;;;10.23;64.25
72560;BME280;62987;52.382;9.752;2023-04-20T08:22:35;101334.91;;;9.48;66.35
72560;BME280;62987;52.382;9.752;2023-04-20T08:25:04;101340.34;;;9.09;66.16
72560;BME280;62987;52.382;9.752;2023-04-20T08:27:32;101330.22;;;10.18;64.30
72560;BME280;62987;52.382;9.752;2023-04-20T08:30:00;101323.81;;;10.80;60.05
72560;BME280;62987;52.382;9.752;2023-04-20T08:32:32;101335.75;;;9.16;64.36
72560;BME280;62987;52.382;9.752;2023-04-20T08:35:00;101332.38;;;9.11;65.40
72560;BME280;62987;52.382;9.752;2023-04-20T08:37:29;101335.00;;;8.77;66.52
72560;BME280;62987;52.382;9.752;2023-04-20T08:40:00;101338.75;;;8.68;66.50
72560;BME280;62987;52.382;9.752;2023-04-20T08:42:28;101346.03;;;8.59;67.19
72560;BME280;62987;52.382;9.752;2023-04-20T08:44:56;101349.47;;;8.62;65.06
72560;BME280;62987;52.382;9.752;2023-04-20T08:47:24;101352.38;;;8.53;65.01
72560;BME280;62987;52.382;9.752;2023-04-20T08:49:54;101343.69;;;8.47;65.32
72560;BME280;62987;52.382;9.752;2023-04-20T08:52:23;101336.78;;;8.39;66.14
72560;BME280;62987;52.382;9.752;2023-04-20T08:54:51;101339.75;;;8.63;66.30
72560;BME280;62987;52.382;9.752;2023-04-20T08:57:25;101336.72;;;8.79;65.56
72560;BME280;62987;52.382;9.752;2023-04-20T08:59:53;101334.69;;;8.89;63.49
72560;BME280;62987;52.382;9.752;2023-04-20T09:02:22;101334.88;;;9.15;63.60
72560;BME280;62987;52.382;9.752;2023-04-20T09:05:00;101336.06;;;9.38;62.43
72560;BME280;62987;52.382;9.752;2023-04-20T09:07:28;101336.69;;;9.47;62.16
72560;BME280;62987;52.382;9.752;2023-04-20T09:09:57;101325.31;;;9.42;62.38
72560;BME280;62987;52.382;9.752;2023-04-20T09:12:27;101337.09;;;9.65;61.80
72560;BME280;62987;52.382;9.752;2023-04-20T09:14:55;101340.22;;;9.14;62.79
72560;BME280;62987;52.382;9.752;2023-04-20T09:17:33;101331.50;;;9.43;61.73
72560;BME280;62987;52.382;9.752;2023-04-20T09:20:02;101337.69;;;9.43;61.34
72560;BME280;62987;52.382;9.752;2023-04-20T09:22:33;101335.50;;;9.27;61.27
72560;BME280;62987;52.382;9.752;2023-04-20T09:25:11;101330.66;;;9.08;61.01
72560;BME280;62987;52.382;9.752;2023-04-20T09:27:41;101339.81;;;9.31;60.14
72560;BME280;62987;52.382;9.752;2023-04-20T09:30:10;101328.28;;;9.32;59.02
72560;BME280;62987;52.382;9.752;2023-04-20T09:32:38;101340.19;;;9.80;58.38
72560;BME280;62987;52.382;9.752;2023-04-20T09:35:06;101346.22;;;9.85;58.82
72560;BME280;62987;52.382;9.752;2023-04-20T09:37:34;101302.50;;;9.35;59.99
72560;BME280;62987;52.382;9.752;2023-04-20T09:40:03;101340.91;;;9.22;60.18
72560;BME280;62987;52.382;9.752;2023-04-20T09:42:35;101337.44;;;9.20;59.84
72560;BME280;62987;52.382;9.752;2023-04-20T09:45:08;101317.22;;;9.14;59.62
72560;BME280;62987;52.382;9.752;2023-04-20T09:47:36;101339.25;;;9.18;59.35
72560;BME280;62987;52.382;9.752;2023-04-20T09:50:09;101337.28;;;9.58;58.31
72560;BME280;62987;52.382;9.752;2023-04-20T09:52:55;101339.19;;;10.14;56.00
72560;BME280;62987;52.382;9.752;2023-04-20T09:55:24;101336.47;;;10.74;53.46
72560;BME280;62987;52.382;9.752;2023-04-20T09:57:53;101331.88;;;10.77;53.11
72560;BME280;62987;52.382;9.752;2023-04-20T10:00:23;101277.72;;;10.80;51.95
72560;BME280;62987;52.382;9.752;2023-04-20T10:02:51;101326.97;;;10.92;53.23
72560;BME280;62987;52.382;9.752;2023-04-20T10:05:31;101336.78;;;10.63;53.77
72560;BME280;62987;52.382;9.752;2023-04-20T10:07:59;101333.22;;;12.15;49.44
72560;BME280;62987;52.382;9.752;2023-04-20T10:10:27;101333.56;;;11.57;49.98
72560;BME280;62987;52.382;9.752;2023-04-20T10:12:59;101329.81;;;11.38;50.73
72560;BME280;62987;52.382;9.752;2023-04-20T10:15:39;101329.34;;;11.77;49.81
72560;BME280;62987;52.382;9.752;2023-04-20T10:18:15;101334.09;;;11.42;50.41
72560;BME280;62987;52.382;9.752;2023-04-20T10:20:45;101344.91;;;10.87;51.68
72560;BME280;62987;52.382;9.752;2023-04-20T10:23:13;101349.41;;;10.85;50.49
72560;BME280;62987;52.382;9.752;2023-04-20T10:25:42;101352.56;;;10.96;50.42
72560;BME280;62987;52.382;9.752;2023-04-20T10:28:11;101344.97;;;10.57;52.07
72560;BME280;62987;52.382;9.752;2023-04-20T10:30:50;101352.47;;;10.72;51.59
72560;BME280;62987;52.382;9.752;2023-04-20T10:33:19;101343.59;;;10.44;51.57
72560;BME280;62987;52.382;9.752;2023-04-20T10:35:49;101333.34;;;10.88;50.89
72560;BME280;62987;52.382;9.752;2023-04-20T10:38:28;101328.50;;;11.50;48.63
72560;BME280;62987;52.382;9.752;2023-04-20T10:40:57;101330.91;;;11.57;48.32
72560;BME280;62987;52.382;9.752;2023-04-20T10:43:32;101325.34;;;11.14;49.50
72560;BME280;62987;52.382;9.752;2023-04-20T10:46:12;101321.22;;;11.80;47.82
72560;BME280;62987;52.382;9.752;2023-04-20T10:48:49;101326.19;;;12.79;44.92
72560;BME280;62987;52.382;9.752;2023-04-20T10:51:17;101317.25;;;13.42;43.70
72560;BME280;62987;52.382;9.752;2023-04-20T10:53:45;101309.03;;;14.06;42.31
72560;BME280;62987;52.382;9.752;2023-04-20T10:56:13;101303.78;;;14.95;40.87
72560;BME280;62987;52.382;9.752;2023-04-20T10:58:41;101312.03;;;14.36;41.41
72560;BME280;62987;52.382;9.752;2023-04-20T11:01:10;101325.22;;;13.44;44.58
72560;BME280;62987;52.382;9.752;2023-04-20T11:03:38;101316.00;;;13.51;43.69
72560;BME280;62987;52.382;9.752;2023-04-20T11:06:06;101328.75;;;13.24;42.97
72560;BME280;62987;52.382;9.752;2023-04-20T11:08:36;101332.13;;;13.07;44.12
72560;BME280;62987;52.382;9.752;2023-04-20T11:11:04;101322.69;;;12.77;44.38
72560;BME280;62987;52.382;9.752;2023-04-20T11:13:34;101324.53;;;12.76;44.55
72560;BME280;62987;52.382;9.752;2023-04-20T11:16:10;101301.56;;;12.29;45.59
72560;BME280;62987;52.382;9.752;2023-04-20T11:18:52;101308.34;;;13.01;44.82
72560;BME280;62987;52.382;9.752;2023-04-20T11:21:21;101314.16;;;12.69;45.14
72560;BME280;62987;52.382;9.752;2023-04-20T11:23:49;101308.06;;;12.65;45.36
72560;BME280;62987;52.382;9.752;2023-04-20T11:26:17;101310.28;;;12.32;46.04
72560;BME280;62987;52.382;9.752;2023-04-20T11:28:52;101305.53;;;11.95;47.82
72560;BME280;62987;52.382;9.752;2023-04-20T11:31:23;101299.84;;;11.56;48.78
72560;BME280;62987;52.382;9.752;2023-04-20T11:33:53;101303.16;;;12.11;47.74
72560;BME280;62987;52.382;9.752;2023-04-20T11:36:22;101294.38;;;12.08;47.86
72560;BME280;62987;52.382;9.752;2023-04-20T11:38:51;101278.41;;;12.51;46.42
72560;BME280;62987;52.382;9.752;2023-04-20T11:41:19;101285.69;;;12.48;46.17
72560;BME280;62987;52.382;9.752;2023-04-20T11:43:47;101223.56;;;12.00;46.05
72560;BME280;62987;52.382;9.752;2023-04-20T11:46:16;101281.53;;;11.47;48.42
72560;BME280;62987;52.382;9.752;2023-04-20T11:48:46;101269.75;;;12.01;47.27
72560;BME280;62987;52.382;9.752;2023-04-20T11:51:15;101251.28;;;13.63;43.28
72560;BME280;62987;52.382;9.752;2023-04-20T11:53:43;101194.56;;;14.66;40.08
72560;BME280;62987;52.382;9.752;2023-04-20T11:56:11;101256.75;;;15.90;37.59
72560;BME280;62987;52.382;9.752;2023-04-20T11:58:39;101265.84;;;15.37;38.12
72560;BME280;62987;52.382;9.752;2023-04-20T12:01:07;101246.97;;;15.89;36.52
72560;BME280;62987;52.382;9.752;2023-04-20T12:03:36;101248.25;;;15.66;37.72
72560;BME280;62987;52.382;9.752;2023-04-20T12:06:05;101243.63;;;15.52;38.19
72560;BME280;62987;52.382;9.752;2023-04-20T12:08:34;101239.47;;;16.11;36.67
72560;BME280;62987;52.382;9.752;2023-04-20T12:11:03;101228.53;;;16.46;36.35
72560;BME280;62987;52.382;9.752;2023-04-20T12:13:31;101245.28;;;17.10;35.01
72560;BME280;62987;52.382;9.752;2023-04-20T12:15:59;101255.31;;;17.23;34.79
72560;BME280;62987;52.382;9.752;2023-04-20T12:18:27;101246.63;;;18.31;32.70
72560;BME280;62987;52.382;9.752;2023-04-20T12:20:55;101240.38;;;17.75;33.53
72560;BME280;62987;52.382;9.752;2023-04-20T12:23:25;101233.91;;;17.35;34.88
72560;BME280;62987;52.382;9.752;2023-04-20T12:25:53;101254.25;;;16.03;36.13
72560;BME280;62987;52.382;9.752;2023-04-20T12:28:21;101236.66;;;15.48;37.73
72560;BME280;62987;52.382;9.752;2023-04-20T12:30:49;101231.22;;;15.67;37.79
72560;BME280;62987;52.382;9.752;2023-04-20T12:33:17;101225.75;;;15.51;38.05
72560;BME280;62987;52.382;9.752;2023-04-20T12:35:45;101227.09;;;16.24;36.66
72560;BME280;62987;52.382;9.752;2023-04-20T12:38:13;101231.56;;;16.08;36.76
72560;BME280;62987;52.382;9.752;2023-04-20T12:40:43;101242.91;;;14.46;39.25
72560;BME280;62987;52.382;9.752;2023-04-20T12:43:11;101231.63;;;14.39;39.85
72560;BME280;62987;52.382;9.752;2023-04-20T12:45:39;101213.72;;;15.76;37.62
72560;BME280;62987;52.382;9.752;2023-04-20T12:48:07;101221.81;;;16.07;37.15
72560;BME280;62987;52.382;9.752;2023-04-20T12:50:35;101221.34;;;14.30;39.83
72560;BME280;62987;52.382;9.752;2023-04-20T12:53:03;101221.69;;;14.94;38.81
72560;BME280;62987;52.382;9.752;2023-04-20T12:55:32;101196.94;;;14.19;40.42
72560;BME280;62987;52.382;9.752;2023-04-20T12:58:01;101229.19;;;14.16;40.96
72560;BME280;62987;52.382;9.752;2023-04-20T13:00:29;101222.69;;;14.02;40.72
72560;BME280;62987;52.382;9.752;2023-04-20T13:02:57;101226.47;;;13.98;41.07
72560;BME280;62987;52.382;9.752;2023-04-20T13:05:26;101222.81;;;13.81;42.04
72560;BME280;62987;52.382;9.752;2023-04-20T13:07:54;101230.78;;;13.82;41.72
72560;BME280;62987;52.382;9.752;2023-04-20T13:10:22;101181.22;;;14.30;40.43